Time;durP1;ratioP1;P1;durP2;ratioP2;P2;SDS_P1;SDS_P2;PMS_P1;PMS_P2;Temp;Humidity;BMP_temperature;BMP_pressure;BME280_temperature;BME280_humidity;BME280_pressure;Samples;Min_cycle;Max_cycle;Signal;HPM_P1;HPM_P2
2022/09/06 04:00:27;;;;;;;23.87;19.50;;;15.40;96.30;;;;;;5978506;23;21972;-77
2022/09/06 04:02:53;;;;;;;16.73;15.03;;;15.40;96.30;;;;;;5008349;28;20835;-78
2022/09/06 04:05:18;;;;;;;14.83;13.33;;;15.40;96.30;;;;;;5022946;28;20644;-79
2022/09/06 04:07:45;;;;;;;11.90;10.70;;;15.40;96.30;;;;;;5036854;28;20200;-80
2022/09/06 04:10:10;;;;;;;13.23;11.93;;;15.40;96.30;;;;;;5005541;28;20418;-78
2022/09/06 04:12:36;;;;;;;18.10;10.87;;;15.40;96.30;;;;;;5015464;28;20165;-75
2022/09/06 04:15:01;;;;;;;11.93;9.70;;;15.40;96.30;;;;;;5017928;28;20175;-77
2022/09/06 04:17:27;;;;;;;10.50;9.60;;;15.40;96.30;;;;;;5032309;28;20210;-76
2022/09/06 04:19:52;;;;;;;14.20;9.73;;;15.40;96.30;;;;;;5017602;28;20644;-75
2022/09/06 05:01:08;;;;;;;12.07;9.30;;;15.70;96.30;;;;;;5755986;23;20572;-78
2022/09/06 05:03:34;;;;;;;12.77;10.13;;;15.70;96.30;;;;;;5028055;28;20419;-78
2022/09/06 05:06:10;;;;;;;9.27;8.47;;;15.70;96.30;;;;;;4996978;28;20176;-77
2022/09/06 05:08:37;;;;;;;10.53;9.53;;;15.70;96.30;;;;;;5013880;28;20695;-78
2022/09/06 05:11:03;;;;;;;9.07;8.27;;;15.60;96.30;;;;;;5023166;28;20459;-78
2022/09/06 05:13:28;;;;;;;12.73;9.07;;;15.60;96.30;;;;;;5031831;28;20411;-78
2022/09/06 05:15:54;;;;;;;11.00;9.40;;;15.60;96.30;;;;;;5032539;28;20172;-77
2022/09/06 05:18:19;;;;;;;10.33;9.23;;;15.60;96.30;;;;;;5032207;28;20172;-77
2022/09/06 05:20:51;;;;;;;9.70;8.70;;;15.70;96.30;;;;;;5013843;28;20220;-78
2022/09/06 05:23:16;;;;;;;10.40;8.50;;;15.70;96.30;;;;;;5004461;28;20655;-78
2022/09/06 05:25:42;;;;;;;12.60;8.70;;;15.70;96.30;;;;;;5032065;28;20461;-78
2022/09/06 05:28:07;;;;;;;12.30;9.20;;;15.60;96.30;;;;;;5013298;28;20616;-78
2022/09/06 05:30:33;;;;;;;9.97;8.87;;;15.60;96.30;;;;;;5032398;28;20276;-77
2022/09/06 05:32:58;;;;;;;9.57;8.60;;;15.50;96.30;;;;;;5032073;28;20517;-78
2022/09/06 05:35:24;;;;;;;9.60;8.70;;;15.60;96.30;;;;;;5014608;28;20214;-78
2022/09/06 05:37:49;;;;;;;9.33;8.40;;;15.60;96.30;;;;;;5013798;28;20176;-76
2022/09/06 05:40:15;;;;;;;12.80;8.27;;;15.70;96.30;;;;;;5029614;28;20175;-77
2022/09/06 05:42:40;;;;;;;9.57;8.67;;;15.70;96.30;;;;;;5012619;28;20173;-77
2022/09/06 05:45:06;;;;;;;10.10;8.47;;;15.70;96.30;;;;;;5012712;28;20204;-77
2022/09/06 05:47:34;;;;;;;10.90;8.83;;;15.70;96.30;;;;;;4994932;28;20223;-77
2022/09/06 05:50:00;;;;;;;13.73;8.17;;;15.80;96.30;;;;;;5012031;28;20432;-77
2022/09/06 05:52:25;;;;;;;9.43;8.53;;;15.80;96.30;;;;;;5019511;28;20431;-77
2022/09/06 05:54:51;;;;;;;9.40;8.50;;;15.90;96.30;;;;;;5031991;28;20432;-78
2022/09/06 05:57:16;;;;;;;14.90;10.00;;;16.00;96.30;;;;;;5032129;28;20188;-77
2022/09/06 05:59:42;;;;;;;10.07;8.40;;;16.10;96.30;;;;;;5031542;28;20180;-77
2022/09/06 06:02:07;;;;;;;10.63;9.53;;;16.10;96.30;;;;;;5032388;28;20240;-77
2022/09/06 06:04:33;;;;;;;10.27;8.40;;;16.20;96.30;;;;;;5031455;28;20246;-75
2022/09/06 06:06:58;;;;;;;10.10;9.07;;;16.30;96.30;;;;;;5014301;28;20238;-75
2022/09/06 06:09:24;;;;;;;8.87;8.07;;;16.40;96.30;;;;;;5013740;28;20176;-75
2022/09/06 06:11:49;;;;;;;9.80;7.83;;;16.40;96.30;;;;;;5031998;28;20192;-75
2022/09/06 06:14:15;;;;;;;8.30;7.30;;;16.50;96.30;;;;;;5031801;28;20176;-75
2022/09/06 06:16:40;;;;;;;13.17;7.57;;;16.60;96.30;;;;;;5031808;28;20191;-75
2022/09/06 06:19:06;;;;;;;8.90;8.00;;;16.70;96.30;;;;;;5031605;28;20180;-79
2022/09/06 06:21:33;;;;;;;9.63;7.70;;;16.60;96.30;;;;;;5031891;28;20203;-75
2022/09/06 06:24:00;;;;;;;9.10;8.17;;;16.70;96.30;;;;;;5031769;28;20243;-77
2022/09/06 06:26:28;;;;;;;8.17;7.20;;;16.70;96.30;;;;;;5031728;28;20907;-79
2022/09/06 06:28:56;;;;;;;7.73;6.93;;;16.70;96.30;;;;;;5031705;28;20449;-75
2022/09/06 06:31:22;;;;;;;8.40;7.63;;;16.80;96.30;;;;;;5031664;28;20437;-78
2022/09/06 06:33:48;;;;;;;8.20;7.47;;;16.90;96.30;;;;;;5031297;28;20411;-78
2022/09/06 06:36:14;;;;;;;8.47;6.97;;;16.90;96.30;;;;;;5033220;28;20430;-78
2022/09/06 06:38:41;;;;;;;11.07;7.70;;;17.00;96.30;;;;;;5035622;28;20415;-78
2022/09/06 06:41:09;;;;;;;10.73;7.60;;;17.00;96.30;;;;;;5035417;28;20219;-78
2022/09/06 06:43:36;;;;;;;9.10;7.70;;;17.20;96.30;;;;;;5035526;28;20426;-78
2022/09/06 06:46:05;;;;;;;8.73;7.43;;;17.20;96.30;;;;;;5035981;28;20890;-78
2022/09/06 06:48:31;;;;;;;7.97;7.13;;;17.50;96.30;;;;;;5035427;28;20527;-77
2022/09/06 06:50:57;;;;;;;8.53;7.30;;;17.60;96.30;;;;;;5035725;28;20958;-78
2022/09/06 06:53:22;;;;;;;9.23;7.33;;;17.60;96.30;;;;;;5035404;28;20180;-78
2022/09/06 06:55:48;;;;;;;12.10;7.23;;;17.60;96.30;;;;;;5035689;28;20425;-78
2022/09/06 06:58:17;;;;;;;8.60;7.30;;;17.70;96.30;;;;;;5034964;28;20192;-78
2022/09/06 07:00:43;;;;;;;12.10;8.00;;;17.70;96.30;;;;;;5031925;28;20258;-78
2022/09/06 07:03:09;;;;;;;10.77;7.27;;;17.60;96.30;;;;;;5034950;28;20978;-78
2022/09/06 07:05:35;;;;;;;6.90;6.20;;;17.60;96.30;;;;;;5030336;28;20459;-78
2022/09/06 07:08:03;;;;;;;6.60;5.90;;;17.60;96.30;;;;;;5025943;28;20434;-78
2022/09/06 07:10:29;;;;;;;7.67;6.90;;;17.70;96.30;;;;;;5027811;28;20443;-78
2022/09/06 07:12:54;;;;;;;9.87;7.10;;;17.70;96.30;;;;;;4997579;28;20431;-78
2022/09/06 07:15:20;;;;;;;11.73;6.57;;;17.80;96.30;;;;;;4997217;28;20251;-78
2022/09/06 07:17:45;;;;;;;8.27;7.43;;;17.80;96.30;;;;;;5014933;28;20632;-78
2022/09/06 07:20:10;;;;;;;11.70;7.67;;;17.80;96.30;;;;;;5025530;28;20176;-78
2022/09/06 07:22:37;;;;;;;10.63;7.73;;;17.90;96.30;;;;;;5034269;28;20188;-78
2022/09/06 07:25:03;;;;;;;15.17;8.13;;;18.00;96.30;;;;;;5034964;28;20236;-78
2022/09/06 07:27:29;;;;;;;7.50;6.87;;;18.00;96.30;;;;;;5034837;28;20465;-78
2022/09/06 07:29:55;;;;;;;8.47;7.20;;;18.10;96.30;;;;;;5034431;28;20411;-78
2022/09/06 07:32:20;;;;;;;9.50;7.00;;;18.10;96.30;;;;;;5034333;28;20271;-78
2022/09/06 07:34:46;;;;;;;8.37;7.30;;;18.10;96.30;;;;;;5034517;28;20291;-78
2022/09/06 07:37:11;;;;;;;8.60;6.63;;;18.20;96.30;;;;;;5034432;28;20659;-78
2022/09/06 07:39:37;;;;;;;13.00;7.50;;;18.30;96.30;;;;;;5016255;28;20271;-78
2022/09/06 07:42:03;;;;;;;8.80;7.90;;;18.40;96.30;;;;;;5034300;28;20207;-78
2022/09/06 07:44:28;;;;;;;9.07;7.47;;;18.40;96.30;;;;;;5034144;28;20458;-78
2022/09/06 07:46:54;;;;;;;7.23;6.33;;;18.50;96.30;;;;;;5033849;28;20525;-78
2022/09/06 07:49:19;;;;;;;11.77;7.70;;;18.50;96.30;;;;;;5033733;28;20164;-78
2022/09/06 07:51:46;;;;;;;6.87;6.20;;;18.50;96.30;;;;;;5016262;28;20547;-78
2022/09/06 07:54:12;;;;;;;9.33;6.80;;;18.60;96.30;;;;;;5034012;28;20168;-78
2022/09/06 07:56:37;;;;;;;8.13;6.70;;;18.80;96.30;;;;;;5023603;28;20454;-78
2022/09/06 07:59:03;;;;;;;9.40;6.67;;;18.80;96.30;;;;;;5014034;28;20231;-78
2022/09/06 08:01:36;;;;;;;8.50;6.83;;;18.90;96.30;;;;;;5013980;28;20205;-78
2022/09/06 08:04:05;;;;;;;8.37;6.20;;;19.20;96.30;;;;;;4996470;28;20268;-78
2022/09/06 08:06:33;;;;;;;6.97;6.37;;;19.70;96.30;;;;;;4996622;28;20416;-78
2022/09/06 08:08:59;;;;;;;10.90;6.10;;;20.40;96.30;;;;;;5013579;28;20430;-78
2022/09/06 08:11:27;;;;;;;8.67;6.33;;;20.60;96.30;;;;;;5028131;28;20517;-78
2022/09/06 08:13:54;;;;;;;8.00;5.50;;;20.80;96.30;;;;;;5032980;28;20430;-78
2022/09/06 08:16:21;;;;;;;7.03;5.97;;;21.40;96.30;;;;;;5016099;28;20419;-78
2022/09/06 08:18:52;;;;;;;9.20;5.33;;;21.70;96.30;;;;;;5015849;28;20419;-78
2022/09/06 08:21:19;;;;;;;7.43;5.50;;;21.70;96.30;;;;;;5033565;28;20488;-78
2022/09/06 08:23:47;;;;;;;5.63;5.13;;;22.20;96.30;;;;;;5033054;28;20426;-78
2022/09/06 08:26:12;;;;;;;7.23;5.50;;;22.40;96.30;;;;;;5033886;28;20415;-78
2022/09/06 08:28:38;;;;;;;5.20;4.80;;;23.10;96.30;;;;;;5033730;28;20427;-78
2022/09/06 08:31:05;;;;;;;6.57;5.97;;;22.80;96.30;;;;;;5016283;28;20570;-79
2022/09/06 08:33:30;;;;;;;4.70;4.30;;;22.70;96.30;;;;;;5016541;28;20181;-79
2022/09/06 08:35:59;;;;;;;5.70;5.10;;;22.90;96.30;;;;;;5034839;28;20437;-77
2022/09/06 08:38:26;;;;;;;8.23;5.53;;;23.00;96.30;;;;;;5016671;28;20183;-78
2022/09/06 08:40:53;;;;;;;5.57;5.03;;;23.50;96.30;;;;;;5034176;28;20439;-78
2022/09/06 08:43:20;;;;;;;5.37;4.87;;;23.80;96.30;;;;;;5034727;28;20414;-78
2022/09/06 08:45:56;;;;;;;5.30;4.90;;;23.90;96.30;;;;;;5034106;28;20537;-78
2022/09/06 08:48:25;;;;;;;5.53;5.03;;;23.70;96.30;;;;;;5033900;28;20958;-78
2022/09/06 08:51:15;;;;;;;8.60;4.77;;;23.50;96.30;;;;;;5029671;28;20451;-77
2022/09/06 08:53:45;;;;;;;5.10;4.60;;;23.10;96.30;;;;;;5033336;28;20407;-78
2022/09/06 08:56:14;;;;;;;5.90;5.40;;;23.00;96.30;;;;;;5033424;28;20421;-78
2022/09/06 08:58:57;;;;;;;5.70;5.20;;;24.00;96.30;;;;;;5015504;28;20425;-78
2022/09/06 09:01:31;;;;;;;5.50;5.00;;;23.70;96.30;;;;;;5033052;28;20486;-77
2022/09/06 09:04:01;;;;;;;4.87;4.10;;;24.20;96.30;;;;;;5034300;28;20470;-78
2022/09/06 09:06:28;;;;;;;5.37;4.47;;;24.30;96.30;;;;;;5016259;28;20964;-78
2022/09/06 09:09:07;;;;;;;5.93;4.87;;;25.30;96.30;;;;;;5034011;28;20415;-77
2022/09/06 09:11:34;;;;;;;6.03;4.47;;;25.50;96.30;;;;;;5014324;28;20436;-77
2022/09/06 09:14:06;;;;;;;10.77;4.70;;;24.70;96.30;;;;;;5010961;28;20418;-77
2022/09/06 09:16:33;;;;;;;9.03;5.20;;;24.20;96.30;;;;;;5033075;28;20426;-77
2022/09/06 09:19:02;;;;;;;5.30;4.90;;;24.20;96.30;;;;;;5032875;28;20493;-76
2022/09/06 09:21:39;;;;;;;6.37;5.20;;;23.80;96.30;;;;;;5069499;28;20587;-74
2022/09/06 09:24:07;;;;;;;7.00;5.23;;;23.40;96.30;;;;;;5069605;28;20386;-75
2022/09/06 09:26:48;;;;;;;5.10;4.70;;;23.10;96.30;;;;;;5069507;28;20394;-78
2022/09/06 09:29:14;;;;;;;5.87;5.37;;;23.20;96.30;;;;;;5067707;28;20404;-76
2022/09/06 09:31:46;;;;;;;9.40;5.60;;;23.60;96.30;;;;;;5069245;28;20512;-76
2022/09/06 09:34:26;;;;;;;5.93;5.30;;;23.60;96.30;;;;;;5069226;28;20397;-75
2022/09/06 09:37:28;;;;;;;8.20;5.80;;;24.10;96.30;;;;;;5068182;28;20458;-76
2022/09/06 09:39:56;;;;;;;7.43;5.50;;;24.00;96.30;;;;;;5057241;28;20471;-80
2022/09/06 09:42:35;;;;;;;13.27;5.10;;;24.10;96.30;;;;;;5089231;28;20439;-76
2022/09/06 09:45:20;;;;;;;5.53;5.10;;;24.10;96.30;;;;;;5089312;28;20549;-76
2022/09/06 09:47:46;;;;;;;8.83;5.07;;;24.10;96.30;;;;;;5089241;28;20393;-76
2022/09/06 09:50:25;;;;;;;6.37;5.70;;;24.00;96.30;;;;;;5088893;28;20412;-76
2022/09/06 09:52:50;;;;;;;7.40;5.00;;;24.40;96.30;;;;;;5089186;28;20174;-76
2022/09/06 09:55:21;;;;;;;5.27;4.87;;;24.20;96.30;;;;;;5089118;28;20408;-77
2022/09/06 09:57:49;;;;;;;7.13;4.80;;;24.30;96.30;;;;;;5087836;28;20174;-75
2022/09/06 10:00:32;;;;;;;5.53;4.23;;;24.60;96.30;;;;;;5088745;28;20848;-75
2022/09/06 10:02:58;;;;;;;5.00;4.20;;;24.80;96.30;;;;;;5087773;28;20469;-76
2022/09/06 10:05:23;;;;;;;4.93;4.57;;;24.80;96.30;;;;;;5087624;28;20420;-76
2022/09/06 10:07:53;;;;;;;11.73;4.70;;;24.60;96.30;;;;;;5087363;28;20208;-80
2022/09/06 10:10:29;;;;;;;6.20;3.83;;;24.70;96.30;;;;;;5088685;28;20246;-78
2022/09/06 10:13:14;;;;;;;5.67;3.60;;;25.20;96.30;;;;;;5088806;28;20397;-76
2022/09/06 10:15:41;;;;;;;4.20;3.80;;;25.10;96.30;;;;;;5088760;28;20420;-75
2022/09/06 10:18:34;;;;;;;6.10;3.83;;;24.70;96.30;;;;;;5074009;28;20423;-75
2022/09/06 10:21:04;;;;;;;4.20;3.80;;;25.10;96.30;;;;;;5067805;28;20982;-75
2022/09/06 10:23:54;;;;;;;6.50;4.00;;;25.00;96.30;;;;;;5068139;28;20413;-75
2022/09/06 10:26:33;;;;;;;6.67;4.70;;;24.90;96.30;;;;;;5067970;28;20401;-76
2022/09/06 10:29:04;;;;;;;4.70;3.80;;;25.40;96.30;;;;;;5067706;28;20390;-75
2022/09/06 10:31:40;;;;;;;13.40;4.83;;;25.90;96.30;;;;;;5061683;28;20495;-76
2022/09/06 10:34:28;;;;;;;5.23;3.90;;;26.10;96.30;;;;;;5053913;28;20417;-76
2022/09/06 10:37:15;;;;;;;4.30;3.30;;;26.00;96.30;;;;;;5053603;28;20414;-76
2022/09/06 10:40:10;;;;;;;6.73;3.93;;;26.10;96.30;;;;;;5056098;28;20442;-78
2022/09/06 10:42:52;;;;;;;4.10;3.70;;;26.60;96.30;;;;;;5036445;28;20430;-78
2022/09/06 10:45:44;;;;;;;7.80;3.20;;;26.90;96.30;;;;;;5038543;28;20978;-78
2022/09/06 10:48:27;;;;;;;4.33;3.77;;;27.30;96.30;;;;;;5037206;28;20406;-78
2022/09/06 10:51:20;;;;;;;3.63;3.33;;;27.10;94.90;;;;;;5037279;28;20429;-78
2022/09/06 10:54:02;;;;;;;7.40;3.57;;;26.70;95.80;;;;;;5037321;28;20402;-78
2022/09/06 10:56:37;;;;;;;7.70;3.87;;;27.30;96.30;;;;;;5037427;28;20411;-77
2022/09/06 10:59:16;;;;;;;3.97;3.67;;;27.30;94.80;;;;;;5034484;28;20406;-78
2022/09/06 11:01:59;;;;;;;3.70;3.40;;;27.10;93.40;;;;;;5033151;28;20442;-78
2022/09/06 11:04:34;;;;;;;4.40;4.00;;;26.60;94.40;;;;;;5038057;28;20408;-78
2022/09/06 11:07:04;;;;;;;4.80;3.40;;;26.10;96.30;;;;;;5037846;28;20751;-78
2022/09/06 11:09:40;;;;;;;4.60;2.93;;;26.30;96.30;;;;;;5040945;28;20469;-78
2022/09/06 11:12:11;;;;;;;4.20;2.93;;;26.40;95.70;;;;;;5039877;28;20423;-78
2022/09/06 11:14:38;;;;;;;4.03;2.47;;;26.40;95.00;;;;;;5037263;28;20407;-78
2022/09/06 11:17:08;;;;;;;6.17;3.00;;;26.40;94.40;;;;;;5038781;28;20434;-78
2022/09/06 11:19:46;;;;;;;5.17;3.90;;;26.90;94.30;;;;;;5037876;28;20458;-78
2022/09/06 11:22:44;;;;;;;8.60;3.37;;;26.60;93.60;;;;;;5037303;28;20434;-78
2022/09/06 11:25:37;;;;;;;4.13;3.23;;;26.40;96.20;;;;;;5055530;28;20533;-78
2022/09/06 11:28:07;;;;;;;3.30;3.00;;;26.30;96.30;;;;;;5054322;28;20848;-78
2022/09/06 11:30:33;;;;;;;3.60;3.13;;;25.90;96.30;;;;;;5058529;28;20421;-78
2022/09/06 11:33:19;;;;;;;3.87;3.17;;;26.20;96.30;;;;;;5052681;28;20417;-78
2022/09/06 11:35:44;;;;;;;4.37;3.70;;;25.70;96.30;;;;;;5037590;28;20787;-78
2022/09/06 11:38:13;;;;;;;6.10;4.33;;;25.30;96.30;;;;;;5035768;28;20422;-78
2022/09/06 11:40:42;;;;;;;7.73;3.30;;;24.90;96.30;;;;;;5047466;28;20238;-78
2022/09/06 11:43:11;;;;;;;4.10;3.70;;;24.60;96.30;;;;;;5075781;28;20406;-78
2022/09/06 11:45:49;;;;;;;3.73;3.40;;;24.40;96.30;;;;;;5075916;28;20432;-78
2022/09/06 11:48:32;;;;;;;4.00;3.40;;;24.30;96.30;;;;;;5074276;28;20424;-78
2022/09/06 11:50:58;;;;;;;6.70;3.83;;;24.20;96.30;;;;;;5075970;28;20441;-78
2022/09/06 11:53:29;;;;;;;3.77;3.33;;;24.00;96.30;;;;;;5076037;28;21133;-78
2022/09/06 11:56:01;;;;;;;4.30;4.00;;;23.80;96.30;;;;;;5075733;28;20170;-78
2022/09/06 11:58:50;;;;;;;8.93;3.70;;;23.70;96.30;;;;;;5074438;28;20406;-78
2022/09/06 12:09:21;;;;;;;5.53;3.90;;;22.70;96.30;;;;;;6066091;22;20486;-78
2022/09/06 12:11:47;;;;;;;5.10;3.73;;;22.70;96.30;;;;;;5057416;28;20453;-80
2022/09/06 12:14:34;;;;;;;8.83;4.00;;;22.40;96.30;;;;;;5057164;28;20844;-80
2022/09/06 12:17:00;;;;;;;12.77;4.40;;;22.00;96.30;;;;;;5035924;28;20175;-80
2022/09/06 12:19:50;;;;;;;8.80;5.53;;;21.60;96.30;;;;;;5054074;28;20410;-76
2022/09/06 12:22:25;;;;;;;11.57;6.00;;;21.00;96.30;;;;;;5054921;28;20667;-77
2022/09/06 12:25:10;;;;;;;10.03;5.80;;;20.20;96.30;;;;;;5036665;28;20784;-77
2022/09/06 12:27:51;;;;;;;6.27;3.33;;;19.40;96.30;;;;;;5054653;28;20452;-77
2022/09/06 12:30:29;;;;;;;14.93;3.20;;;18.40;96.30;;;;;;5053347;28;20477;-76
2022/09/06 12:32:56;;;;;;;7.23;2.60;;;16.70;96.30;;;;;;5053645;28;20555;-76
2022/09/06 12:35:26;;;;;;;7.83;2.90;;;15.90;96.30;;;;;;5053308;28;20913;-76
2022/09/06 12:37:57;;;;;;;15.90;2.87;;;15.20;96.30;;;;;;5033749;28;20895;-76
2022/09/06 12:40:24;;;;;;;5.57;2.53;;;14.60;96.30;;;;;;5034003;28;20454;-77
2022/09/06 12:42:51;;;;;;;6.63;3.50;;;14.50;96.30;;;;;;5049999;28;20422;-77
2022/09/06 12:45:20;;;;;;;2.63;1.97;;;14.50;96.30;;;;;;5053295;28;20418;-77
2022/09/06 12:47:45;;;;;;;9.53;2.20;;;14.50;96.30;;;;;;5054402;28;20410;-77
2022/09/06 12:50:20;;;;;;;3.33;2.10;;;14.50;96.30;;;;;;5052990;28;20793;-79
2022/09/06 12:52:50;;;;;;;3.03;1.67;;;14.50;96.30;;;;;;5034247;28;20209;-77
2022/09/06 12:55:28;;;;;;;2.77;2.30;;;14.40;96.30;;;;;;5051912;28;20403;-76
2022/09/06 12:57:56;;;;;;;4.63;2.07;;;14.50;96.30;;;;;;5031926;28;20429;-75
2022/09/06 13:00:23;;;;;;;7.43;2.30;;;14.60;96.30;;;;;;5039820;28;20544;-75
2022/09/06 13:02:56;;;;;;;7.93;2.30;;;14.70;96.30;;;;;;5028309;28;20414;-76
2022/09/06 13:05:23;;;;;;;5.07;1.57;;;14.80;96.30;;;;;;5051485;28;20498;-74
2022/09/06 13:07:53;;;;;;;2.40;2.00;;;14.80;96.30;;;;;;5051094;28;20410;-78
2022/09/06 13:10:23;;;;;;;2.57;2.10;;;15.00;96.30;;;;;;5051545;28;20508;-75
2022/09/06 13:12:51;;;;;;;3.97;1.90;;;15.00;96.30;;;;;;5051462;28;20493;-74
2022/09/06 13:15:29;;;;;;;4.87;2.50;;;15.00;96.30;;;;;;5051713;28;20941;-75
2022/09/06 13:18:17;;;;;;;2.70;1.90;;;15.10;96.30;;;;;;5051620;28;20398;-74
2022/09/06 13:20:43;;;;;;;4.20;2.77;;;15.10;96.30;;;;;;5051788;28;20996;-75
2022/09/06 13:23:20;;;;;;;2.60;2.40;;;15.30;96.30;;;;;;5052722;28;20439;-76
2022/09/06 13:25:50;;;;;;;2.80;2.10;;;15.40;96.30;;;;;;5033740;28;20194;-76
2022/09/06 13:28:33;;;;;;;3.07;2.03;;;15.60;96.30;;;;;;5051261;28;20815;-76
2022/09/06 13:31:03;;;;;;;3.13;2.33;;;15.60;96.30;;;;;;5045390;28;20449;-77
2022/09/06 13:33:28;;;;;;;2.60;1.90;;;15.70;96.30;;;;;;5048318;28;20430;-76
2022/09/06 13:36:26;;;;;;;3.57;1.67;;;15.80;96.30;;;;;;5050728;28;20463;-78
2022/09/06 13:38:52;;;;;;;6.10;5.50;;;15.90;96.30;;;;;;5033164;28;20188;-79
2022/09/06 13:41:23;;;;;;;5.73;5.17;;;16.00;96.30;;;;;;5035539;28;20472;-79
2022/09/06 13:43:57;;;;;;;2.97;1.80;;;16.00;96.30;;;;;;5053014;28;20509;-79
2022/09/06 13:46:23;;;;;;;2.00;1.60;;;16.00;96.30;;;;;;5035780;28;20475;-80
2022/09/06 13:48:48;;;;;;;3.47;2.00;;;16.10;96.30;;;;;;5053426;28;20781;-78
2022/09/06 13:51:14;;;;;;;2.50;1.67;;;16.20;96.30;;;;;;5053004;28;20806;-78
2022/09/06 13:53:40;;;;;;;3.30;1.53;;;16.20;96.30;;;;;;5052853;28;20721;-78
2022/09/06 13:56:07;;;;;;;5.63;1.97;;;16.20;96.30;;;;;;5035833;28;20422;-79
2022/09/06 13:58:33;;;;;;;2.83;1.87;;;16.10;96.30;;;;;;5035174;28;20183;-79
2022/09/06 14:00:59;;;;;;;2.67;2.00;;;16.10;96.30;;;;;;5034002;28;20621;-78
2022/09/06 14:03:30;;;;;;;3.90;1.77;;;16.10;96.30;;;;;;5033888;28;20926;-77
2022/09/06 14:05:56;;;;;;;3.50;2.20;;;16.30;96.30;;;;;;5034400;28;20620;-78
2022/09/06 14:08:22;;;;;;;6.07;1.90;;;16.20;96.30;;;;;;5055330;28;20418;-78
2022/09/06 14:10:50;;;;;;;5.53;2.80;;;16.20;96.30;;;;;;5046942;28;20464;-78
2022/09/06 14:13:16;;;;;;;2.87;2.30;;;16.20;96.30;;;;;;5075661;28;20431;-79
2022/09/06 14:15:44;;;;;;;3.17;2.10;;;16.20;96.30;;;;;;5059875;28;20917;-77
2022/09/06 14:18:09;;;;;;;3.20;2.03;;;16.20;96.30;;;;;;5038021;28;20426;-78
2022/09/06 14:20:35;;;;;;;5.67;3.23;;;16.20;96.30;;;;;;5055377;28;20484;-80
2022/09/06 14:23:00;;;;;;;4.37;2.57;;;16.40;96.30;;;;;;5060008;28;20181;-79
2022/09/06 14:25:26;;;;;;;7.33;2.83;;;16.50;96.30;;;;;;5045158;28;20190;-78
2022/09/06 14:27:51;;;;;;;9.33;3.10;;;16.50;96.30;;;;;;5058673;28;20187;-78
2022/09/06 14:30:17;;;;;;;3.07;2.77;;;16.60;96.30;;;;;;5046154;28;20172;-78
2022/09/06 14:32:42;;;;;;;2.60;2.40;;;16.70;96.30;;;;;;5038791;28;20280;-78
2022/09/06 14:35:08;;;;;;;9.50;3.20;;;16.80;96.30;;;;;;5038852;28;20666;-79
2022/09/06 14:37:34;;;;;;;3.30;3.00;;;17.00;96.30;;;;;;5055360;28;20185;-79
2022/09/06 14:39:59;;;;;;;3.13;2.83;;;17.60;96.30;;;;;;5059300;28;20277;-78
2022/09/06 14:42:27;;;;;;;3.63;3.30;;;17.80;96.30;;;;;;5059927;28;20683;-81
2022/09/06 14:44:52;;;;;;;5.33;3.37;;;18.00;96.30;;;;;;5060004;28;20167;-79
2022/09/06 14:47:18;;;;;;;6.40;3.73;;;18.00;96.30;;;;;;5040784;28;20509;-79
2022/09/06 14:49:44;;;;;;;5.37;3.70;;;18.40;96.30;;;;;;5063839;28;20183;-79
2022/09/06 14:52:09;;;;;;;6.10;3.60;;;19.00;96.30;;;;;;5055302;28;20270;-77
2022/09/06 14:54:35;;;;;;;6.17;4.80;;;19.10;96.30;;;;;;5055036;28;20226;-81
2022/09/06 14:57:00;;;;;;;4.47;3.53;;;19.30;96.30;;;;;;5070073;28;20707;-77
2022/09/06 14:59:26;;;;;;;4.17;3.13;;;19.50;96.30;;;;;;5054251;28;20171;-78
2022/09/06 15:01:51;;;;;;;3.33;3.13;;;19.20;96.30;;;;;;5054765;28;20553;-78
2022/09/06 15:04:17;;;;;;;4.03;3.67;;;19.20;96.30;;;;;;5054556;28;20218;-78
2022/09/06 15:06:45;;;;;;;5.90;5.30;;;19.30;96.30;;;;;;5054631;28;20636;-77
2022/09/06 15:09:12;;;;;;;6.93;4.50;;;19.30;96.30;;;;;;5054299;28;20546;-77
2022/09/06 15:11:40;;;;;;;3.93;3.37;;;19.90;96.30;;;;;;5069925;28;20445;-80
2022/09/06 15:14:11;;;;;;;5.70;4.00;;;19.70;96.30;;;;;;5055967;28;20414;-80
2022/09/06 15:16:37;;;;;;;6.43;4.37;;;19.60;96.30;;;;;;5055383;28;20418;-80
2022/09/06 15:19:02;;;;;;;4.47;4.07;;;19.20;96.30;;;;;;5037397;28;20471;-81
2022/09/06 15:21:29;;;;;;;5.93;4.60;;;19.20;96.30;;;;;;5037729;28;20208;-80
2022/09/06 15:23:55;;;;;;;6.93;4.83;;;19.20;96.30;;;;;;5055759;28;20741;-80
2022/09/06 15:26:21;;;;;;;5.07;4.40;;;19.40;96.30;;;;;;5054996;28;20485;-80
2022/09/06 15:28:46;;;;;;;6.73;5.50;;;19.50;96.30;;;;;;5064351;28;20500;-79
2022/09/06 15:31:13;;;;;;;6.43;5.20;;;19.60;96.30;;;;;;5074232;28;20711;-77
2022/09/06 15:33:39;;;;;;;11.60;5.23;;;19.50;96.30;;;;;;5065344;28;20179;-78
2022/09/06 15:36:06;;;;;;;6.23;4.20;;;19.50;96.30;;;;;;5054301;28;20421;-80
2022/09/06 15:38:32;;;;;;;5.37;4.40;;;19.60;96.30;;;;;;5036013;28;20494;-80
2022/09/06 15:41:07;;;;;;;4.50;4.10;;;19.80;96.30;;;;;;5038363;28;20464;-80
2022/09/06 15:43:33;;;;;;;6.13;4.60;;;19.80;96.30;;;;;;5038639;28;20936;-80
2022/09/06 15:46:02;;;;;;;4.43;4.00;;;20.20;96.30;;;;;;5056252;28;20402;-80
2022/09/06 15:48:28;;;;;;;6.13;5.17;;;20.50;96.30;;;;;;5056831;28;20445;-80
2022/09/06 15:50:54;;;;;;;5.03;4.63;;;20.70;96.30;;;;;;5060481;28;20452;-79
2022/09/06 15:53:19;;;;;;;5.80;4.80;;;20.80;96.30;;;;;;5040018;28;20418;-79
2022/09/06 15:55:57;;;;;;;8.33;4.63;;;20.60;96.30;;;;;;5039744;28;20229;-82
2022/09/06 15:58:24;;;;;;;8.90;4.90;;;20.60;96.30;;;;;;5056317;28;20182;-80
2022/09/06 16:01:07;;;;;;;5.53;4.93;;;20.40;96.30;;;;;;5062609;28;20856;-81
2022/09/06 16:03:41;;;;;;;5.87;4.70;;;20.40;96.30;;;;;;5050315;28;20942;-80
2022/09/06 16:06:10;;;;;;;7.97;5.40;;;20.50;96.30;;;;;;5037379;28;20451;-80
2022/09/06 16:08:36;;;;;;;5.80;4.90;;;20.50;96.30;;;;;;5052463;28;20917;-79
2022/09/06 16:11:10;;;;;;;5.87;5.10;;;20.50;96.30;;;;;;5056320;28;20536;-79
2022/09/06 16:13:38;;;;;;;12.30;6.10;;;20.50;96.30;;;;;;5070339;28;20578;-79
2022/09/06 16:16:06;;;;;;;7.23;6.53;;;20.30;96.30;;;;;;5038572;28;20472;-79
2022/09/06 16:18:33;;;;;;;6.13;5.53;;;20.30;96.30;;;;;;5037158;28;20418;-77
2022/09/06 16:21:20;;;;;;;9.83;5.60;;;20.20;96.30;;;;;;5052837;28;20965;-77
2022/09/06 16:23:54;;;;;;;6.50;5.90;;;20.00;96.30;;;;;;5055202;28;20394;-80
2022/09/06 16:26:21;;;;;;;6.90;5.50;;;20.00;96.30;;;;;;5054568;28;20409;-78
2022/09/06 16:28:49;;;;;;;5.67;5.17;;;19.90;96.30;;;;;;5055428;28;20414;-79
2022/09/06 16:31:15;;;;;;;6.10;5.50;;;19.90;96.30;;;;;;5071107;28;20551;-81
2022/09/06 16:33:44;;;;;;;5.93;5.33;;;19.70;96.30;;;;;;5079001;28;20490;-81
2022/09/06 16:36:12;;;;;;;9.20;8.30;;;19.50;96.30;;;;;;5057185;28;20449;-79
2022/09/06 16:38:38;;;;;;;8.40;6.30;;;19.30;96.30;;;;;;5059024;28;20418;-79
2022/09/06 16:41:29;;;;;;;10.70;9.63;;;19.10;96.30;;;;;;5054372;28;20461;-80
2022/09/06 16:43:55;;;;;;;10.90;9.10;;;19.00;96.30;;;;;;5040589;28;20413;-79
2022/09/06 16:46:23;;;;;;;11.83;8.00;;;18.90;96.30;;;;;;5035290;28;20418;-79
2022/09/06 16:48:53;;;;;;;9.43;7.87;;;18.90;96.30;;;;;;5052354;28;20432;-78
2022/09/06 16:51:21;;;;;;;7.97;7.13;;;19.00;96.30;;;;;;5071879;28;20794;-80
2022/09/06 16:53:47;;;;;;;9.03;8.13;;;19.10;96.30;;;;;;5062916;28;20448;-79
2022/09/06 16:56:16;;;;;;;9.43;6.07;;;19.00;96.30;;;;;;5027379;28;20490;-79
2022/09/06 16:58:47;;;;;;;7.83;4.93;;;19.00;96.30;;;;;;5033642;28;20485;-79
2022/09/06 17:01:12;;;;;;;5.50;5.03;;;18.80;96.30;;;;;;5038232;28;20462;-80
2022/09/06 17:03:38;;;;;;;6.43;5.70;;;18.70;96.30;;;;;;5053698;28;20418;-79
2022/09/06 17:06:05;;;;;;;6.60;5.90;;;18.60;96.30;;;;;;5070335;28;20175;-81
2022/09/06 17:08:32;;;;;;;6.80;6.20;;;18.60;96.30;;;;;;5073663;28;20448;-79
2022/09/06 17:11:07;;;;;;;7.53;6.30;;;18.40;96.30;;;;;;5071873;28;20465;-80
2022/09/06 17:13:33;;;;;;;8.73;7.83;;;18.30;96.30;;;;;;5053173;28;20418;-79
2022/09/06 17:18:43;;;;;;;5.03;4.43;;;18.10;96.30;;;;;;5056177;28;20241;-79
2022/09/06 17:21:09;;;;;;;4.20;3.80;;;17.90;96.30;;;;;;5049829;28;20470;-81
2022/09/06 17:23:35;;;;;;;4.30;3.90;;;17.70;96.30;;;;;;5055212;28;20653;-78
2022/09/06 17:26:02;;;;;;;4.73;3.60;;;17.70;96.30;;;;;;5052894;28;20436;-79
2022/09/06 17:28:27;;;;;;;3.83;3.10;;;17.60;96.30;;;;;;5051344;28;20458;-78
2022/09/06 17:30:53;;;;;;;5.10;3.80;;;17.50;96.30;;;;;;5053000;28;20460;-80
2022/09/06 17:33:20;;;;;;;4.30;4.00;;;17.50;96.30;;;;;;5052006;28;20172;-81
2022/09/06 17:35:46;;;;;;;5.10;4.07;;;17.40;96.30;;;;;;5051986;28;20930;-78
2022/09/06 17:38:15;;;;;;;3.80;3.47;;;17.30;96.30;;;;;;5051527;28;20516;-79
2022/09/06 17:40:40;;;;;;;4.60;4.30;;;17.10;96.30;;;;;;5051315;28;20464;-79
2022/09/06 17:43:06;;;;;;;6.37;4.57;;;17.10;96.30;;;;;;5070078;28;20413;-78
2022/09/06 17:45:41;;;;;;;3.90;3.60;;;17.00;96.30;;;;;;5056479;28;20195;-80
2022/09/06 17:48:07;;;;;;;4.87;4.37;;;16.90;96.30;;;;;;5059936;28;20229;-79